createdAt,value
2022-07-28T00:01:58.417Z,101614.31
2022-07-28T00:04:32.483Z,101646.03
2022-07-28T00:07:07.398Z,101705.50
2022-07-28T00:09:40.498Z,101629.34
2022-07-28T00:12:13.287Z,101657.13
2022-07-28T00:14:46.056Z,101667.69
2022-07-28T00:17:18.707Z,101657.13
2022-07-28T00:19:51.640Z,101662.88
2022-07-28T00:22:24.446Z,101691.09
2022-07-28T00:24:56.928Z,101679.84
2022-07-28T00:27:29.859Z,101677.66
2022-07-28T00:30:05.129Z,101624.16
2022-07-28T00:32:38.082Z,101659.50
2022-07-28T00:35:11.091Z,101696.44
2022-07-28T00:37:44.698Z,101689.53
2022-07-28T00:40:21.893Z,101644.94
2022-07-28T00:42:54.727Z,101661.44
2022-07-28T00:45:27.402Z,101696.63
2022-07-28T00:48:00.337Z,101640.22
2022-07-28T00:50:32.970Z,101681.75
2022-07-28T00:53:06.089Z,101658.91
2022-07-28T00:56:06.385Z,101669.13
2022-07-28T00:58:38.436Z,101689.53
2022-07-28T01:01:14.395Z,101670.00
2022-07-28T01:03:51.422Z,101689.16
2022-07-28T01:06:54.417Z,101694.19
2022-07-28T01:09:42.349Z,101682.00
2022-07-28T01:12:40.535Z,101685.66
2022-07-28T01:15:28.658Z,101684.22
2022-07-28T01:18:07.079Z,101691.75
2022-07-28T01:20:48.548Z,101691.06
2022-07-28T01:23:33.475Z,101693.97
2022-07-28T01:26:11.955Z,101678.19
2022-07-28T01:29:11.641Z,101674.47
2022-07-28T01:31:51.186Z,101633.78
2022-07-28T01:34:31.064Z,101680.78
2022-07-28T01:37:10.204Z,101623.34
2022-07-28T01:39:45.501Z,101627.22
2022-07-28T01:42:23.314Z,101641.72
2022-07-28T01:44:59.371Z,101670.34
2022-07-28T01:47:33.138Z,101650.78
2022-07-28T01:50:08.637Z,101676.69
2022-07-28T01:52:44.280Z,101677.56
2022-07-28T01:55:22.230Z,101632.06
2022-07-28T01:57:56.950Z,101653.66
2022-07-28T02:00:30.403Z,101644.66
2022-07-28T02:03:07.219Z,101631.03
2022-07-28T02:05:42.700Z,101652.16
2022-07-28T02:08:16.891Z,101622.13
2022-07-28T02:11:10.881Z,101651.50
2022-07-28T02:13:44.970Z,101653.41
2022-07-28T02:16:21.393Z,101612.63
2022-07-28T02:18:56.868Z,101626.41
2022-07-28T02:21:31.500Z,101589.53
2022-07-28T02:24:06.116Z,101617.34
2022-07-28T02:26:46.077Z,101607.19
2022-07-28T02:29:49.232Z,101582.56
2022-07-28T02:32:28.647Z,101646.63
2022-07-28T02:35:09.510Z,101623.88
2022-07-28T02:37:49.933Z,101609.00
2022-07-28T02:40:23.877Z,101647.88
2022-07-28T02:42:59.758Z,101643.66
2022-07-28T02:45:35.528Z,101642.50
2022-07-28T02:48:15.118Z,101633.03
2022-07-28T02:50:48.828Z,101635.50
2022-07-28T02:53:23.487Z,101640.19
2022-07-28T02:55:57.643Z,101621.47
2022-07-28T02:58:31.720Z,101628.53
2022-07-28T03:01:04.872Z,101579.88
2022-07-28T03:03:41.361Z,101579.22
2022-07-28T03:06:17.816Z,101640.09
2022-07-28T03:08:52.937Z,101628.00
2022-07-28T03:11:25.541Z,101565.28
2022-07-28T03:13:58.000Z,101630.47
2022-07-28T03:16:30.907Z,101642.25
2022-07-28T03:19:03.659Z,101588.16
2022-07-28T03:21:36.227Z,101599.13
2022-07-28T03:24:11.241Z,101582.72
2022-07-28T03:26:56.283Z,101642.44
2022-07-28T03:29:31.341Z,101622.81
2022-07-28T03:32:04.083Z,101644.75
2022-07-28T03:34:37.235Z,101629.13
2022-07-28T03:37:14.330Z,101624.84
2022-07-28T03:39:48.810Z,101612.22
2022-07-28T03:42:21.545Z,101639.25
2022-07-28T03:44:54.943Z,101642.47
2022-07-28T03:47:29.008Z,101577.78
2022-07-28T03:50:02.139Z,101633.16
2022-07-28T03:52:34.712Z,101633.19
2022-07-28T03:55:08.339Z,101645.78
2022-07-28T03:57:41.554Z,101609.69
2022-07-28T04:00:16.870Z,101646.59
2022-07-28T04:02:49.502Z,101618.34
2022-07-28T04:05:22.143Z,101640.31
2022-07-28T04:07:54.845Z,101613.59
2022-07-28T04:10:27.945Z,101634.75
2022-07-28T04:13:01.534Z,101644.59
2022-07-28T04:15:34.646Z,101619.03
2022-07-28T04:18:07.558Z,101629.19
2022-07-28T04:20:40.049Z,101631.56
2022-07-28T04:23:12.702Z,101627.25
2022-07-28T04:25:45.310Z,101646.44
2022-07-28T04:28:18.045Z,101591.44
2022-07-28T04:30:52.867Z,101633.03
2022-07-28T04:33:25.530Z,101602.25
2022-07-28T04:35:58.186Z,101617.91
2022-07-28T04:38:30.925Z,101635.13
2022-07-28T04:41:03.502Z,101619.34
2022-07-28T04:43:37.548Z,101628.38
2022-07-28T04:46:14.816Z,101624.78
2022-07-28T04:48:47.973Z,101630.66
2022-07-28T04:51:21.553Z,101642.88
2022-07-28T04:53:54.234Z,101632.19
2022-07-28T04:56:27.544Z,101625.47
2022-07-28T04:59:01.835Z,101619.19
2022-07-28T05:01:39.218Z,101637.97
2022-07-28T05:04:13.389Z,101639.50
2022-07-28T05:06:46.259Z,101653.59
2022-07-28T05:09:18.853Z,101628.81
2022-07-28T05:11:52.028Z,101645.50
2022-07-28T05:14:25.325Z,101628.25
2022-07-28T05:16:57.940Z,101621.03
2022-07-28T05:19:30.885Z,101635.91
2022-07-28T05:22:03.627Z,101622.44
2022-07-28T05:24:36.154Z,101624.56
2022-07-28T05:27:08.861Z,101651.00
2022-07-28T05:29:47.029Z,101649.91
2022-07-28T05:32:20.635Z,101649.50
2022-07-28T05:34:55.497Z,101661.72
2022-07-28T05:37:29.134Z,101624.34
2022-07-28T05:40:03.972Z,101646.56
2022-07-28T05:42:36.778Z,101665.00
2022-07-28T05:45:15.627Z,101641.91
2022-07-28T05:47:52.475Z,101659.97
2022-07-28T05:50:26.069Z,101655.00
2022-07-28T05:52:58.629Z,101629.75
2022-07-28T05:55:31.331Z,101628.94
2022-07-28T05:58:03.987Z,101653.69
2022-07-28T06:00:36.560Z,101673.75
2022-07-28T06:03:09.581Z,101663.50
2022-07-28T06:05:59.446Z,101650.81
2022-07-28T06:08:36.277Z,101664.72
2022-07-28T06:11:22.317Z,101640.38
2022-07-28T06:13:55.610Z,101630.94
2022-07-28T06:16:28.193Z,101643.16
2022-07-28T06:19:00.848Z,101646.09
2022-07-28T06:21:33.668Z,101623.72
2022-07-28T06:24:06.786Z,101616.59
2022-07-28T06:26:44.367Z,101633.25
2022-07-28T06:29:17.636Z,101652.25
2022-07-28T06:31:50.471Z,101658.06
2022-07-28T06:34:23.122Z,101648.31
2022-07-28T06:36:55.827Z,101639.34
2022-07-28T06:39:28.446Z,101633.91
2022-07-28T06:42:01.099Z,101636.34
2022-07-28T06:44:57.503Z,101659.47
2022-07-28T06:47:26.577Z,101639.75
2022-07-28T06:49:59.165Z,101658.78
2022-07-28T06:52:32.483Z,101660.84
2022-07-28T06:55:06.325Z,101654.25
2022-07-28T06:57:39.387Z,101673.91
2022-07-28T07:00:14.328Z,101652.25
2022-07-28T07:02:46.820Z,101672.59
2022-07-28T07:05:19.238Z,101665.34
2022-07-28T07:07:51.693Z,101632.44
2022-07-28T07:10:24.542Z,101614.91
2022-07-28T07:12:57.054Z,101672.66
2022-07-28T07:15:29.582Z,101624.78
2022-07-28T07:18:02.248Z,101629.53
2022-07-28T07:20:34.708Z,101649.69
2022-07-28T07:23:07.532Z,101673.22
2022-07-28T07:25:40.259Z,101652.34
2022-07-28T07:28:12.858Z,101661.94
2022-07-28T07:30:48.707Z,101641.56
2022-07-28T07:33:26.934Z,101662.69
2022-07-28T07:36:04.529Z,101664.88
2022-07-28T07:38:37.555Z,101663.63
2022-07-28T07:41:12.334Z,101595.16
2022-07-28T07:43:47.820Z,101648.94
2022-07-28T07:46:21.836Z,101658.28
2022-07-28T07:48:54.741Z,101645.75
2022-07-28T07:51:27.650Z,101587.88
2022-07-28T07:54:00.092Z,101657.66
2022-07-28T07:56:32.698Z,101632.31
2022-07-28T07:59:05.099Z,101646.38
2022-07-28T08:01:40.452Z,101638.31
2022-07-28T08:04:15.094Z,101633.06
2022-07-28T08:06:48.778Z,101638.97
2022-07-28T08:09:22.950Z,101644.59
2022-07-28T08:11:55.369Z,101652.09
2022-07-28T08:14:27.877Z,101645.22
2022-07-28T08:17:00.575Z,101657.53
2022-07-28T08:19:34.296Z,101647.66
2022-07-28T08:22:06.730Z,101644.84
2022-07-28T08:24:39.837Z,101628.94
2022-07-28T08:27:12.392Z,101615.44
2022-07-28T08:29:45.020Z,101644.72
2022-07-28T08:32:17.836Z,101631.25
2022-07-28T08:35:00.163Z,101651.66
2022-07-28T08:37:42.507Z,101652.63
2022-07-28T08:40:14.906Z,101641.28
2022-07-28T08:42:57.412Z,101634.78
2022-07-28T08:45:32.515Z,101633.66
2022-07-28T08:48:12.211Z,101641.06
2022-07-28T08:50:46.858Z,101624.53
2022-07-28T08:53:21.188Z,101639.78
2022-07-28T08:55:54.165Z,101638.91
2022-07-28T08:58:27.327Z,101638.31
2022-07-28T09:01:00.847Z,101629.63
2022-07-28T09:03:33.846Z,101623.06
2022-07-28T09:06:07.521Z,101621.41
2022-07-28T09:08:40.197Z,101624.06
2022-07-28T09:11:16.217Z,101627.28
2022-07-28T09:13:53.580Z,101603.34
2022-07-28T09:16:27.006Z,101619.56
2022-07-28T09:18:59.623Z,101607.44
2022-07-28T09:21:32.708Z,101596.44
2022-07-28T09:24:05.623Z,101559.53
2022-07-28T09:26:38.232Z,101572.50
2022-07-28T09:29:10.849Z,101594.25
2022-07-28T09:31:57.001Z,101579.94
2022-07-28T09:34:42.534Z,101600.53
2022-07-28T09:37:27.351Z,101565.72
2022-07-28T09:40:10.737Z,101573.19
2022-07-28T09:42:50.269Z,101586.34
2022-07-28T09:45:28.026Z,101577.28
2022-07-28T09:48:11.453Z,101569.84
2022-07-28T09:50:44.161Z,101564.47
2022-07-28T09:53:27.455Z,101548.88
2022-07-28T09:56:02.389Z,101578.88
2022-07-28T09:58:35.153Z,101586.94
2022-07-28T10:01:20.937Z,101509.50
2022-07-28T10:03:57.657Z,101572.16
2022-07-28T10:06:37.730Z,101571.09
2022-07-28T10:09:14.292Z,101559.25
2022-07-28T10:11:46.756Z,101548.59
2022-07-28T10:14:23.457Z,101543.19
2022-07-28T10:17:04.248Z,101574.56
2022-07-28T10:19:38.715Z,101554.91
2022-07-28T10:22:11.307Z,101568.41
2022-07-28T10:24:46.297Z,101552.97
2022-07-28T10:27:21.641Z,101546.78
2022-07-28T10:29:58.519Z,101566.38
2022-07-28T10:32:37.129Z,101560.16
2022-07-28T10:35:14.598Z,101561.78
2022-07-28T10:38:11.686Z,101563.53
2022-07-28T10:40:49.562Z,101562.06
2022-07-28T10:43:23.942Z,101532.31
2022-07-28T10:46:08.863Z,101551.75
2022-07-28T10:48:44.367Z,101556.03
2022-07-28T10:51:17.230Z,101545.28
2022-07-28T10:53:59.782Z,101545.41
2022-07-28T10:56:49.875Z,101557.72
2022-07-28T10:59:36.882Z,101555.31
2022-07-28T11:02:29.862Z,101526.47
2022-07-28T11:05:03.664Z,101546.53
2022-07-28T11:07:42.064Z,101540.16
2022-07-28T11:10:16.971Z,101532.13
2022-07-28T11:12:51.968Z,101547.53
2022-07-28T11:15:37.921Z,101528.78
2022-07-28T11:18:10.565Z,101523.66
2022-07-28T11:20:58.564Z,101537.84
2022-07-28T11:23:46.660Z,101536.69
2022-07-28T11:26:22.664Z,101485.66
2022-07-28T11:29:01.037Z,101522.53
2022-07-28T11:31:48.907Z,101524.88
2022-07-28T11:34:23.734Z,101509.13
2022-07-28T11:37:05.307Z,101495.03
2022-07-28T11:39:42.821Z,101507.00
2022-07-28T11:42:35.785Z,101504.78
2022-07-28T11:45:26.408Z,101496.53
2022-07-28T11:48:18.366Z,101493.59
2022-07-28T11:51:02.614Z,101501.44
2022-07-28T11:53:43.118Z,101486.00
2022-07-28T11:56:29.106Z,101493.59
2022-07-28T11:59:07.372Z,101494.50
2022-07-28T12:01:51.851Z,101486.25
2022-07-28T12:04:27.630Z,101493.53
2022-07-28T12:07:04.454Z,101475.06
2022-07-28T12:09:42.436Z,101485.03
2022-07-28T12:12:15.276Z,101460.13
2022-07-28T12:14:47.944Z,101477.25
2022-07-28T12:17:20.448Z,101464.09
2022-07-28T12:19:53.447Z,101473.94
2022-07-28T12:22:26.621Z,101463.72
2022-07-28T12:25:00.137Z,101469.53
2022-07-28T12:27:35.064Z,101441.53
2022-07-28T12:30:12.854Z,101473.91
2022-07-28T12:32:45.453Z,101466.94
2022-07-28T12:35:19.366Z,101453.72
2022-07-28T12:37:52.412Z,101450.91
2022-07-28T12:40:29.682Z,101438.31
2022-07-28T12:43:02.261Z,101429.53
2022-07-28T12:45:45.029Z,101441.63
2022-07-28T12:48:20.989Z,101458.72
2022-07-28T12:50:53.814Z,101461.47
2022-07-28T12:53:26.377Z,101460.69
2022-07-28T12:56:05.970Z,101455.25
2022-07-28T12:58:38.685Z,101452.75
2022-07-28T13:01:12.375Z,101445.63
2022-07-28T13:03:53.601Z,101445.38
2022-07-28T13:06:26.540Z,101405.72
2022-07-28T13:08:59.165Z,101430.81
2022-07-28T13:11:45.940Z,101455.69
2022-07-28T13:14:43.728Z,101426.09
2022-07-28T13:17:16.206Z,101410.28
2022-07-28T13:19:50.442Z,101426.63
2022-07-28T13:22:27.726Z,101429.84
2022-07-28T13:25:01.272Z,101420.38
2022-07-28T13:27:34.603Z,101424.22
2022-07-28T13:30:08.606Z,101420.38
2022-07-28T13:32:41.177Z,101407.28
2022-07-28T13:35:15.034Z,101437.03
2022-07-28T13:37:48.727Z,101439.19
2022-07-28T13:40:21.454Z,101432.94
2022-07-28T13:42:56.952Z,101399.59
2022-07-28T13:45:30.789Z,101410.03
2022-07-28T13:48:05.010Z,101426.31
2022-07-28T13:50:39.286Z,101409.03
2022-07-28T13:53:12.052Z,101429.59
2022-07-28T13:55:44.536Z,101422.06
2022-07-28T13:58:18.116Z,101432.84
2022-07-28T14:00:51.021Z,101427.22
2022-07-28T14:03:23.783Z,101416.53
2022-07-28T14:05:58.051Z,101410.16
2022-07-28T14:08:30.611Z,101419.19
2022-07-28T14:11:03.726Z,101370.66
2022-07-28T14:13:38.140Z,101395.97
2022-07-28T14:16:14.516Z,101405.00
2022-07-28T14:18:47.929Z,101356.44
2022-07-28T14:21:20.462Z,101389.06
2022-07-28T14:23:53.705Z,101398.81
2022-07-28T14:26:35.887Z,101406.00
2022-07-28T14:29:11.455Z,101387.25
2022-07-28T14:31:44.559Z,101368.50
2022-07-28T14:34:17.487Z,101366.19
2022-07-28T14:36:53.529Z,101376.75
2022-07-28T14:39:26.001Z,101409.34
2022-07-28T14:41:59.304Z,101342.59
2022-07-28T14:44:31.892Z,101368.78
2022-07-28T14:47:04.579Z,101363.91
2022-07-28T14:49:37.351Z,101378.78
2022-07-28T14:52:30.298Z,101379.31
2022-07-28T14:55:03.248Z,101390.88
2022-07-28T14:57:48.742Z,101394.47
2022-07-28T15:00:29.750Z,101365.19
2022-07-28T15:03:02.360Z,101387.53
2022-07-28T15:05:35.256Z,101390.59
2022-07-28T15:08:07.925Z,101397.00
2022-07-28T15:10:50.988Z,101365.16
2022-07-28T15:13:23.664Z,101336.69
2022-07-28T15:15:56.844Z,101391.34
2022-07-28T15:18:29.420Z,101334.38
2022-07-28T15:21:03.068Z,101397.25
2022-07-28T15:23:35.647Z,101378.03
2022-07-28T15:26:17.860Z,101390.06
2022-07-28T15:28:50.633Z,101330.19
2022-07-28T15:31:25.734Z,101345.53
2022-07-28T15:33:59.143Z,101374.31
2022-07-28T15:36:33.698Z,101378.78
2022-07-28T15:39:10.373Z,101338.69
2022-07-28T15:41:45.306Z,101394.41
2022-07-28T15:44:25.980Z,101360.03
2022-07-28T15:46:59.582Z,101361.59
2022-07-28T15:49:32.141Z,101363.88
2022-07-28T15:52:04.843Z,101360.03
2022-07-28T15:54:37.499Z,101380.56
2022-07-28T15:57:10.449Z,101341.56
2022-07-28T15:59:50.021Z,101338.50
2022-07-28T16:02:23.353Z,101358.25
2022-07-28T16:04:56.211Z,101350.53
2022-07-28T16:07:30.923Z,101352.03
2022-07-28T16:10:08.859Z,101371.81
2022-07-28T16:12:41.559Z,101326.16
2022-07-28T16:15:14.523Z,101328.50
2022-07-28T16:17:47.448Z,101364.16
2022-07-28T16:20:21.168Z,101375.94
2022-07-28T16:23:06.680Z,101310.09
2022-07-28T16:25:45.248Z,101306.53
2022-07-28T16:28:20.562Z,101308.88
2022-07-28T16:30:54.213Z,101322.97
2022-07-28T16:33:33.530Z,101344.00
2022-07-28T16:36:06.664Z,101292.59
2022-07-28T16:38:39.564Z,101345.50
2022-07-28T16:41:12.065Z,101313.88
2022-07-28T16:43:49.347Z,101316.63
2022-07-28T16:46:24.306Z,101338.66
2022-07-28T16:48:57.580Z,101318.25
2022-07-28T16:51:32.815Z,101313.09
2022-07-28T16:54:09.736Z,101295.06
2022-07-28T16:56:43.500Z,101319.22
2022-07-28T16:59:16.153Z,101294.38
2022-07-28T17:01:48.806Z,101258.41
2022-07-28T17:04:21.714Z,101271.13
2022-07-28T17:09:44.659Z,101322.38
2022-07-28T17:12:17.512Z,101335.06
2022-07-28T17:14:52.353Z,101349.84
2022-07-28T17:17:25.281Z,101350.47
2022-07-28T17:20:17.169Z,101356.84
2022-07-28T17:22:51.212Z,101352.91
2022-07-28T17:28:21.727Z,101298.41
2022-07-28T17:30:54.486Z,101274.75
2022-07-28T17:33:27.617Z,101265.66
2022-07-28T17:36:06.010Z,101315.22
2022-07-28T17:38:42.779Z,101324.94
2022-07-28T17:41:15.451Z,101322.41
2022-07-28T17:43:50.374Z,101338.09
2022-07-28T17:46:23.422Z,101336.75
2022-07-28T17:49:05.740Z,101258.03
2022-07-28T17:51:38.578Z,101317.53
2022-07-28T17:54:14.210Z,101311.47
2022-07-28T17:56:50.397Z,101335.59
2022-07-28T17:59:26.666Z,101321.88
2022-07-28T18:02:20.648Z,101341.28
2022-07-28T18:04:54.588Z,101261.03
2022-07-28T18:07:29.451Z,101340.16
2022-07-28T18:10:25.191Z,101318.94
2022-07-28T18:13:00.148Z,101316.41
2022-07-28T18:15:47.749Z,101275.47
2022-07-28T18:18:29.960Z,101290.38
2022-07-28T18:21:08.707Z,101241.06
2022-07-28T18:23:42.670Z,101283.47
2022-07-28T18:26:21.710Z,101332.97
2022-07-28T18:28:54.570Z,101259.38
2022-07-28T18:31:27.696Z,101295.16
2022-07-28T18:34:02.800Z,101288.78
2022-07-28T18:36:40.158Z,101295.94
2022-07-28T18:39:27.369Z,101233.25
2022-07-28T18:42:02.431Z,101259.06
2022-07-28T18:44:36.910Z,101268.41
2022-07-28T18:47:11.148Z,101230.34
2022-07-28T18:49:46.260Z,101283.22
2022-07-28T18:52:18.872Z,101247.94
2022-07-28T18:54:56.463Z,101276.06
2022-07-28T18:57:31.866Z,101307.03
2022-07-28T19:00:15.139Z,101340.53
2022-07-28T19:02:48.172Z,101310.03
2022-07-28T19:05:21.129Z,101296.59
2022-07-28T19:07:55.972Z,101342.16
2022-07-28T19:10:28.582Z,101294.53
2022-07-28T19:13:04.593Z,101315.41
2022-07-28T19:15:41.822Z,101349.06
2022-07-28T19:18:14.417Z,101291.25
2022-07-28T19:20:47.073Z,101324.91
2022-07-28T19:23:19.906Z,101372.34
2022-07-28T19:25:55.128Z,101361.97
2022-07-28T19:28:40.509Z,101304.84
2022-07-28T19:31:13.791Z,101350.34
2022-07-28T19:33:46.805Z,101361.16
2022-07-28T19:36:20.294Z,101378.16
2022-07-28T19:38:53.576Z,101342.84
2022-07-28T19:41:31.374Z,101348.66
2022-07-28T19:44:04.110Z,101300.81
2022-07-28T19:46:37.077Z,101345.81
2022-07-28T19:49:12.726Z,101356.25
2022-07-28T19:51:45.378Z,101365.13
2022-07-28T19:54:21.307Z,101344.97
2022-07-28T19:56:54.897Z,101355.56
2022-07-28T19:59:28.070Z,101375.38
2022-07-28T20:02:00.681Z,101382.19
2022-07-28T20:04:33.146Z,101366.06
2022-07-28T20:07:05.807Z,101387.03
2022-07-28T20:09:38.771Z,101370.13
2022-07-28T20:12:11.457Z,101297.53
2022-07-28T20:14:44.127Z,101347.50
2022-07-28T20:17:37.394Z,101355.09
2022-07-28T20:20:15.349Z,101376.94
2022-07-28T20:22:55.424Z,101384.75
2022-07-28T20:25:27.981Z,101381.34
2022-07-28T20:28:01.927Z,101334.47
2022-07-28T20:30:36.055Z,101333.69
2022-07-28T20:33:08.694Z,101390.94
2022-07-28T20:35:46.954Z,101395.03
2022-07-28T20:38:23.591Z,101395.66
2022-07-28T20:40:56.115Z,101354.97
2022-07-28T20:43:36.447Z,101353.75
2022-07-28T20:46:10.666Z,101332.94
2022-07-28T20:48:43.266Z,101341.66
2022-07-28T20:51:18.550Z,101371.13
2022-07-28T20:53:50.997Z,101368.34
2022-07-28T20:56:25.967Z,101385.41
2022-07-28T20:59:06.100Z,101382.63
2022-07-28T21:01:40.136Z,101399.41
2022-07-28T21:04:13.130Z,101333.44
2022-07-28T21:06:50.269Z,101405.91
2022-07-28T21:09:24.557Z,101391.00
2022-07-28T21:11:57.513Z,101399.38
2022-07-28T21:14:32.378Z,101386.75
2022-07-28T21:17:05.175Z,101408.53
2022-07-28T21:19:37.908Z,101370.41
2022-07-28T21:22:11.959Z,101362.03
2022-07-28T21:24:51.709Z,101331.84
2022-07-28T21:27:27.462Z,101340.38
2022-07-28T21:32:31.667Z,101359.84
2022-07-28T21:35:04.843Z,101408.16
2022-07-28T21:37:37.426Z,101345.38
2022-07-28T21:40:10.811Z,101340.69
2022-07-28T21:42:43.373Z,101408.38
2022-07-28T21:45:15.937Z,101370.00
2022-07-28T21:48:10.925Z,101419.13
2022-07-28T21:50:43.743Z,101367.56
2022-07-28T21:53:17.374Z,101375.19
2022-07-28T21:55:54.918Z,101421.38
2022-07-28T21:58:27.772Z,101385.16
2022-07-28T22:01:02.735Z,101406.78
2022-07-28T22:03:37.408Z,101415.81
2022-07-28T22:06:10.116Z,101400.22
2022-07-28T22:08:42.773Z,101355.63
2022-07-28T22:11:15.260Z,101346.13
2022-07-28T22:13:47.726Z,101404.25
2022-07-28T22:17:00.990Z,101410.38
2022-07-28T22:23:17.926Z,101306.72
2022-07-28T22:26:03.156Z,101322.53
2022-07-28T22:28:35.850Z,101364.50
2022-07-28T22:31:10.046Z,101374.31
2022-07-28T22:33:47.068Z,101403.38
2022-07-28T22:36:19.632Z,101382.25
2022-07-28T22:38:54.439Z,101395.31
2022-07-28T22:41:27.347Z,101391.56
2022-07-28T22:43:59.822Z,101389.09
2022-07-28T22:46:33.718Z,101382.56
2022-07-28T22:49:06.441Z,101370.16
2022-07-28T22:51:39.127Z,101334.41
2022-07-28T22:54:18.880Z,101376.38
2022-07-28T22:56:51.540Z,101361.13
2022-07-28T22:59:25.352Z,101405.25
2022-07-28T23:01:58.015Z,101397.94
2022-07-28T23:04:31.053Z,101405.84
2022-07-28T23:07:03.725Z,101395.00
2022-07-28T23:09:36.333Z,101374.59
2022-07-28T23:12:10.627Z,101400.59
2022-07-28T23:14:43.227Z,101359.72
2022-07-28T23:17:18.102Z,101381.63
2022-07-28T23:19:50.791Z,101380.34
2022-07-28T23:22:26.758Z,101416.41
2022-07-28T23:24:59.599Z,101396.16
2022-07-28T23:27:32.303Z,101394.31
2022-07-28T23:30:06.194Z,101405.00
2022-07-28T23:32:38.850Z,101378.44
2022-07-28T23:35:11.607Z,101367.25
2022-07-28T23:37:44.211Z,101374.69
2022-07-28T23:40:17.367Z,101370.66
2022-07-28T23:42:50.037Z,101386.50
2022-07-28T23:45:22.754Z,101402.34
2022-07-28T23:47:58.796Z,101361.75
2022-07-28T23:50:32.100Z,101416.13
2022-07-28T23:53:04.807Z,101381.50
2022-07-28T23:55:37.344Z,101365.94
2022-07-28T23:58:09.924Z,101383.31
